createdAt,value
2018-07-19T00:00:20.761Z,62.10
2018-07-19T00:02:49.866Z,62.25
2018-07-19T00:05:18.959Z,62.51
2018-07-19T00:07:48.065Z,62.99
2018-07-19T00:10:17.153Z,62.85
2018-07-19T00:12:46.249Z,64.01
2018-07-19T00:15:15.344Z,64.83
2018-07-19T00:17:44.437Z,64.71
2018-07-19T00:20:13.523Z,63.64
2018-07-19T00:22:42.645Z,64.84
2018-07-19T00:25:11.729Z,64.53
2018-07-19T00:27:40.817Z,64.82
2018-07-19T00:30:09.946Z,65.18
2018-07-19T00:32:39.143Z,65.11
2018-07-19T00:35:08.250Z,65.32
2018-07-19T00:37:37.335Z,66.41
2018-07-19T00:40:06.449Z,65.75
2018-07-19T00:42:35.529Z,67.32
2018-07-19T00:45:04.674Z,66.12
2018-07-19T00:47:33.757Z,66.28
2018-07-19T00:50:02.877Z,66.67
2018-07-19T00:52:31.976Z,66.16
2018-07-19T00:55:01.158Z,65.81
2018-07-19T00:57:30.291Z,65.04
2018-07-19T00:59:59.366Z,65.67
2018-07-19T01:02:28.473Z,67.43
2018-07-19T01:04:57.570Z,68.41
2018-07-19T01:07:26.701Z,67.86
2018-07-19T01:09:55.801Z,68.16
2018-07-19T01:12:24.929Z,69.20
2018-07-19T01:14:54.023Z,67.81
2018-07-19T01:17:23.105Z,67.89
2018-07-19T01:19:52.227Z,67.87
2018-07-19T01:22:21.333Z,68.56
2018-07-19T01:24:50.441Z,68.68
2018-07-19T01:27:19.650Z,69.33
2018-07-19T01:29:48.737Z,68.80
2018-07-19T01:32:17.837Z,68.50
2018-07-19T01:34:46.925Z,68.34
2018-07-19T01:37:16.045Z,68.15
2018-07-19T01:39:45.133Z,69.55
2018-07-19T01:42:28.666Z,70.28
2018-07-19T01:44:57.749Z,70.14
2018-07-19T01:47:26.860Z,69.10
2018-07-19T01:49:56.002Z,68.30
2018-07-19T01:52:25.108Z,69.46
2018-07-19T01:54:54.225Z,69.32
2018-07-19T01:57:23.338Z,69.05
2018-07-19T01:59:52.421Z,68.08
2018-07-19T02:02:21.545Z,67.85
2018-07-19T02:04:50.613Z,68.24
2018-07-19T02:07:19.717Z,67.80
2018-07-19T02:09:48.830Z,68.04
2018-07-19T02:12:17.961Z,68.09
2018-07-19T02:14:47.061Z,68.44
2018-07-19T02:17:16.167Z,66.82
2018-07-19T02:19:45.254Z,67.14
2018-07-19T02:22:14.380Z,67.42
2018-07-19T02:24:43.762Z,67.61
2018-07-19T02:27:12.821Z,68.19
2018-07-19T02:29:41.933Z,67.30
2018-07-19T02:32:11.056Z,68.39
2018-07-19T02:34:40.161Z,68.72
2018-07-19T02:37:09.281Z,67.86
2018-07-19T02:39:38.385Z,68.22
2018-07-19T02:42:07.496Z,67.75
2018-07-19T02:44:36.605Z,68.04
2018-07-19T02:47:05.773Z,68.24
2018-07-19T02:49:34.863Z,67.98
2018-07-19T02:52:03.976Z,69.12
2018-07-19T02:54:33.089Z,68.75
2018-07-19T02:57:02.217Z,68.81
2018-07-19T02:59:31.316Z,69.78
2018-07-19T03:02:00.437Z,69.88
2018-07-19T03:04:29.500Z,69.89
2018-07-19T03:06:58.591Z,69.50
2018-07-19T03:09:27.701Z,71.41
2018-07-19T03:11:56.797Z,71.57
2018-07-19T03:14:25.933Z,70.16
2018-07-19T03:16:55.040Z,69.49
2018-07-19T03:19:24.121Z,70.54
2018-07-19T03:21:53.221Z,70.06
2018-07-19T03:24:22.304Z,71.08
2018-07-19T03:26:51.404Z,70.06
2018-07-19T03:29:20.509Z,70.85
2018-07-19T03:31:49.593Z,70.28
2018-07-19T03:34:18.701Z,71.02
2018-07-19T03:36:47.957Z,70.42
2018-07-19T03:39:17.089Z,70.34
2018-07-19T03:41:46.202Z,69.39
2018-07-19T03:44:15.311Z,69.50
2018-07-19T03:46:44.413Z,70.01
2018-07-19T03:49:13.530Z,70.28
2018-07-19T03:51:42.693Z,69.85
2018-07-19T03:54:11.785Z,71.35
2018-07-19T03:56:40.897Z,70.36
2018-07-19T03:59:09.976Z,70.40
2018-07-19T04:01:39.085Z,69.18
2018-07-19T04:04:08.189Z,70.04
2018-07-19T04:06:37.314Z,69.54
2018-07-19T04:09:07.284Z,69.77
2018-07-19T04:11:36.366Z,70.01
2018-07-19T04:14:05.809Z,71.42
2018-07-19T04:16:34.905Z,72.16
2018-07-19T04:19:04.006Z,72.74
2018-07-19T04:21:33.101Z,72.02
2018-07-19T04:24:02.190Z,72.20
2018-07-19T04:26:31.285Z,72.10
2018-07-19T04:29:00.383Z,71.84
2018-07-19T04:31:29.485Z,72.30
2018-07-19T04:33:58.609Z,71.35
2018-07-19T04:36:27.713Z,72.00
2018-07-19T04:38:56.813Z,72.94
2018-07-19T04:41:25.925Z,73.17
2018-07-19T04:43:55.035Z,72.95
2018-07-19T04:46:24.140Z,73.61
2018-07-19T04:48:53.249Z,73.72
2018-07-19T04:51:22.377Z,73.64
2018-07-19T04:53:51.501Z,74.15
2018-07-19T04:56:20.593Z,74.04
2018-07-19T04:58:49.711Z,75.65
2018-07-19T05:01:18.810Z,75.27
2018-07-19T05:03:47.897Z,74.88
2018-07-19T05:06:16.989Z,73.71
2018-07-19T05:08:46.105Z,74.52
2018-07-19T05:11:15.241Z,74.55
2018-07-19T05:13:44.369Z,73.58
2018-07-19T05:16:13.598Z,74.65
2018-07-19T05:18:42.781Z,74.77
2018-07-19T05:21:11.899Z,74.57
2018-07-19T05:23:41.013Z,73.96
2018-07-19T05:26:10.098Z,72.58
2018-07-19T05:28:39.332Z,73.70
2018-07-19T05:31:08.456Z,73.74
2018-07-19T05:33:37.592Z,72.48
2018-07-19T05:36:06.955Z,72.10
2018-07-19T05:38:36.096Z,71.84
2018-07-19T05:41:05.286Z,71.14
2018-07-19T05:43:34.425Z,71.52
2018-07-19T05:46:03.529Z,72.00
2018-07-19T05:48:32.810Z,71.64
2018-07-19T05:51:02.203Z,71.85
2018-07-19T05:53:31.286Z,72.09
2018-07-19T05:56:00.501Z,71.56
2018-07-19T05:58:29.621Z,70.86
2018-07-19T06:00:58.729Z,69.80
2018-07-19T06:03:27.821Z,69.93
2018-07-19T06:05:56.987Z,69.74
2018-07-19T06:08:26.246Z,68.96
2018-07-19T06:10:55.365Z,68.67
2018-07-19T06:13:24.519Z,69.14
2018-07-19T06:15:53.693Z,69.00
2018-07-19T06:18:22.816Z,69.11
2018-07-19T06:20:51.913Z,68.46
2018-07-19T06:23:21.093Z,68.03
2018-07-19T06:25:50.185Z,68.64
2018-07-19T06:28:19.283Z,68.02
2018-07-19T06:30:48.409Z,67.75
2018-07-19T06:33:17.501Z,66.53
2018-07-19T06:35:46.641Z,67.13
2018-07-19T06:38:15.725Z,67.60
2018-07-19T06:40:44.848Z,66.71
2018-07-19T06:43:13.945Z,66.79
2018-07-19T06:45:43.232Z,66.48
2018-07-19T06:48:12.321Z,65.46
2018-07-19T06:50:41.413Z,64.58
2018-07-19T06:53:10.569Z,64.95
2018-07-19T06:55:39.669Z,63.13
2018-07-19T06:58:19.533Z,63.36
2018-07-19T07:00:48.648Z,62.27
2018-07-19T07:03:17.741Z,61.31
2018-07-19T07:05:47.061Z,59.77
2018-07-19T07:08:16.141Z,60.75
2018-07-19T07:10:45.257Z,58.82
2018-07-19T07:13:14.345Z,58.89
2018-07-19T07:15:43.449Z,59.13
2018-07-19T07:18:12.541Z,56.84
2018-07-19T07:20:46.209Z,56.23
2018-07-19T07:23:15.357Z,55.74
2018-07-19T07:25:48.625Z,55.97
2018-07-19T07:28:18.533Z,54.67
2018-07-19T07:30:47.677Z,52.67
2018-07-19T07:33:17.279Z,52.57
2018-07-19T07:35:47.130Z,50.57
2018-07-19T07:38:16.822Z,51.24
2018-07-19T07:40:46.255Z,50.64
2018-07-19T07:43:15.389Z,51.07
2018-07-19T07:45:44.617Z,47.58
2018-07-19T07:48:13.730Z,49.81
2018-07-19T07:50:42.909Z,47.82
2018-07-19T07:53:11.994Z,48.53
2018-07-19T07:55:41.074Z,46.78
2018-07-19T07:58:10.242Z,46.55
2018-07-19T08:00:39.313Z,46.71
2018-07-19T08:03:08.598Z,44.80
2018-07-19T08:05:37.745Z,47.90
2018-07-19T08:08:06.857Z,48.13
2018-07-19T08:10:35.978Z,49.67
2018-07-19T08:13:05.066Z,48.19
2018-07-19T08:15:34.164Z,48.89
2018-07-19T08:18:03.313Z,48.08
2018-07-19T08:20:32.441Z,48.63
2018-07-19T08:23:01.541Z,45.88
2018-07-19T08:25:30.765Z,46.76
2018-07-19T08:28:00.061Z,48.71
2018-07-19T08:30:29.152Z,48.75
2018-07-19T08:32:58.274Z,46.80
2018-07-19T08:35:27.446Z,46.37
2018-07-19T08:37:56.589Z,46.82
2018-07-19T08:40:25.753Z,44.93
2018-07-19T08:42:55.093Z,45.05
2018-07-19T08:45:24.201Z,45.47
2018-07-19T08:47:53.289Z,43.49
2018-07-19T08:50:22.369Z,42.56
2018-07-19T08:52:51.461Z,43.25
2018-07-19T08:55:20.629Z,41.62
2018-07-19T08:57:49.722Z,42.31
2018-07-19T09:00:19.710Z,43.87
2018-07-19T09:02:48.805Z,43.09
2018-07-19T09:05:17.981Z,42.96
2018-07-19T09:07:47.157Z,41.26
2018-07-19T09:10:16.807Z,40.09
2018-07-19T09:12:45.937Z,39.62
2018-07-19T09:15:15.040Z,41.50
2018-07-19T09:17:44.149Z,42.98
2018-07-19T09:20:13.277Z,44.14
2018-07-19T09:22:42.381Z,43.42
2018-07-19T09:25:11.485Z,42.96
2018-07-19T09:27:40.573Z,41.86
2018-07-19T09:30:09.697Z,39.34
2018-07-19T09:32:38.797Z,39.02
2018-07-19T09:35:07.914Z,37.63
2018-07-19T09:37:37.009Z,39.23
2018-07-19T09:40:06.277Z,39.43
2018-07-19T09:42:35.461Z,38.89
2018-07-19T09:45:04.681Z,40.81
2018-07-19T09:47:33.786Z,38.03
2018-07-19T09:50:02.902Z,38.49
2018-07-19T09:52:32.017Z,39.06
2018-07-19T09:55:02.326Z,40.27
2018-07-19T09:57:32.117Z,39.57
2018-07-19T10:00:01.215Z,39.29
2018-07-19T10:02:30.306Z,39.24
2018-07-19T10:04:59.401Z,38.61
2018-07-19T10:07:28.498Z,40.27
2018-07-19T10:09:57.643Z,39.09
2018-07-19T10:12:26.668Z,36.86
2018-07-19T10:14:55.758Z,36.29
2018-07-19T10:17:24.882Z,35.79
2018-07-19T10:19:53.937Z,36.85
2018-07-19T10:22:23.049Z,38.33
2018-07-19T10:24:52.137Z,38.07
2018-07-19T10:27:21.213Z,35.23
2018-07-19T10:29:50.362Z,34.55
2018-07-19T10:32:19.614Z,33.68
2018-07-19T10:34:48.579Z,33.84
2018-07-19T10:37:17.685Z,34.49
2018-07-19T10:39:46.781Z,34.29
2018-07-19T10:42:16.394Z,34.91
2018-07-19T10:44:45.537Z,32.32
2018-07-19T10:47:14.665Z,31.37
2018-07-19T10:49:43.751Z,30.26
2018-07-19T10:52:12.857Z,30.26
2018-07-19T10:54:41.957Z,32.60
2018-07-19T10:57:11.053Z,33.00
2018-07-19T10:59:40.169Z,32.10
2018-07-19T11:02:09.597Z,30.29
2018-07-19T11:04:38.721Z,31.59
2018-07-19T11:07:07.842Z,30.80
2018-07-19T11:09:36.959Z,31.98
2018-07-19T11:12:06.245Z,31.32
2018-07-19T11:14:35.541Z,32.28
2018-07-19T11:17:04.720Z,29.85
2018-07-19T11:19:33.805Z,31.70
2018-07-19T11:22:02.896Z,31.64
2018-07-19T11:24:32.014Z,31.73
2018-07-19T11:27:01.154Z,31.67
2018-07-19T11:29:30.273Z,30.55
2018-07-19T11:31:59.385Z,29.77
2018-07-19T11:34:28.465Z,29.33
2018-07-19T11:36:57.589Z,29.78
2018-07-19T11:39:26.740Z,30.46
2018-07-19T11:41:56.382Z,29.17
2018-07-19T11:44:25.513Z,28.72
2018-07-19T11:46:54.617Z,29.07
2018-07-19T11:49:23.740Z,29.94
2018-07-19T11:51:52.865Z,30.79
2018-07-19T11:54:21.969Z,30.09
2018-07-19T11:56:51.125Z,31.28
2018-07-19T11:59:20.761Z,29.40
2018-07-19T12:01:49.906Z,32.52
2018-07-19T12:04:19.309Z,31.10
2018-07-19T12:06:48.433Z,31.06
2018-07-19T12:09:17.581Z,31.16
2018-07-19T12:11:46.685Z,29.48
2018-07-19T12:14:15.793Z,29.46
2018-07-19T12:16:44.889Z,30.06
2018-07-19T12:19:13.993Z,29.63
2018-07-19T12:21:43.169Z,29.73
2018-07-19T12:24:12.264Z,30.36
2018-07-19T12:26:41.371Z,30.46
2018-07-19T12:29:10.459Z,29.93
2018-07-19T12:31:39.605Z,30.06
2018-07-19T12:34:08.698Z,30.14
2018-07-19T12:36:37.873Z,29.64
2018-07-19T12:39:09.114Z,28.75
2018-07-19T12:41:38.245Z,29.24
2018-07-19T12:44:07.604Z,29.50
2018-07-19T12:46:36.699Z,28.89
2018-07-19T12:49:06.353Z,29.70
2018-07-19T12:51:35.513Z,29.12
2018-07-19T12:54:04.623Z,26.88
2018-07-19T12:56:33.742Z,28.05
2018-07-19T12:59:02.845Z,28.96
2018-07-19T13:01:32.039Z,28.18
2018-07-19T13:04:01.147Z,29.16
2018-07-19T13:06:30.305Z,29.20
2018-07-19T13:08:59.468Z,29.83
2018-07-19T13:11:28.553Z,29.18
2018-07-19T13:13:58.342Z,28.47
2018-07-19T13:16:27.482Z,30.06
2018-07-19T13:18:56.709Z,28.81
2018-07-19T13:21:26.005Z,29.13
2018-07-19T13:23:56.669Z,27.99
2018-07-19T13:26:26.062Z,28.70
2018-07-19T13:28:55.213Z,27.59
2018-07-19T13:31:24.382Z,27.96
2018-07-19T13:33:54.385Z,30.12
2018-07-19T13:36:23.521Z,28.37
2018-07-19T13:38:52.670Z,28.35
2018-07-19T13:41:21.841Z,28.75
2018-07-19T13:43:50.961Z,29.12
2018-07-19T13:46:20.088Z,28.61
2018-07-19T13:48:49.205Z,27.37
2018-07-19T13:51:18.373Z,26.86
2018-07-19T13:54:17.828Z,28.56
2018-07-19T13:56:46.937Z,28.73
2018-07-19T13:59:16.997Z,27.21
2018-07-19T14:01:46.154Z,28.53
2018-07-19T14:04:15.327Z,27.94
2018-07-19T14:06:44.368Z,26.63
2018-07-19T14:09:14.854Z,27.68
2018-07-19T14:11:44.047Z,25.50
2018-07-19T14:14:13.197Z,26.64
2018-07-19T14:16:42.301Z,27.24
2018-07-19T14:19:11.470Z,25.98
2018-07-19T14:21:40.597Z,26.15
2018-07-19T14:24:09.809Z,26.99
2018-07-19T14:26:39.001Z,26.30
2018-07-19T14:29:08.095Z,25.59
2018-07-19T14:31:37.230Z,26.61
2018-07-19T14:34:06.398Z,26.41
2018-07-19T14:36:35.573Z,26.79
2018-07-19T14:39:08.057Z,26.11
2018-07-19T14:41:37.280Z,26.89
2018-07-19T14:44:07.503Z,27.02
2018-07-19T14:46:36.585Z,26.28
2018-07-19T14:49:05.769Z,25.83
2018-07-19T14:51:34.944Z,26.40
2018-07-19T14:54:04.061Z,27.31
2018-07-19T14:56:33.197Z,26.50
2018-07-19T14:59:02.309Z,27.68
2018-07-19T15:01:31.430Z,26.88
2018-07-19T15:04:00.548Z,27.25
2018-07-19T15:06:29.651Z,25.98
2018-07-19T15:08:58.813Z,27.40
2018-07-19T15:11:27.977Z,27.36
2018-07-19T15:13:57.163Z,27.08
2018-07-19T15:16:26.248Z,25.66
2018-07-19T15:18:55.506Z,27.43
2018-07-19T15:21:24.641Z,28.52
2018-07-19T15:23:53.769Z,29.14
2018-07-19T15:26:22.872Z,29.76
2018-07-19T15:28:52.065Z,28.39
2018-07-19T15:31:21.108Z,27.01
2018-07-19T15:33:50.237Z,27.11
2018-07-19T15:36:19.357Z,29.08
2018-07-19T15:38:48.527Z,27.77
2018-07-19T15:41:17.641Z,27.82
2018-07-19T15:43:46.737Z,27.73
2018-07-19T15:46:15.845Z,27.62
2018-07-19T15:48:45.030Z,28.06
2018-07-19T15:51:14.173Z,28.22
2018-07-19T15:53:43.321Z,27.62
2018-07-19T15:56:12.409Z,28.13
2018-07-19T15:58:41.559Z,28.89
2018-07-19T16:01:10.643Z,28.91
2018-07-19T16:03:39.727Z,29.86
2018-07-19T16:06:08.868Z,28.21
2018-07-19T16:08:37.949Z,28.56
2018-07-19T16:11:07.173Z,27.61
2018-07-19T16:13:36.345Z,29.17
2018-07-19T16:16:05.450Z,28.44
2018-07-19T16:18:34.577Z,28.68
2018-07-19T16:21:03.705Z,27.32
2018-07-19T16:23:32.805Z,28.61
2018-07-19T16:26:01.966Z,30.07
2018-07-19T16:28:31.041Z,27.71
2018-07-19T16:31:00.158Z,29.12
2018-07-19T16:33:29.243Z,29.78
2018-07-19T16:35:58.432Z,27.90
2018-07-19T16:38:27.549Z,28.37
2018-07-19T16:40:56.738Z,30.96
2018-07-19T16:43:25.768Z,29.66
2018-07-19T16:45:54.869Z,29.14
2018-07-19T16:48:23.991Z,28.86
2018-07-19T16:50:53.092Z,28.15
2018-07-19T16:53:22.299Z,30.69
2018-07-19T16:55:51.398Z,29.99
2018-07-19T16:58:20.530Z,29.55
2018-07-19T17:00:49.745Z,29.73
2018-07-19T17:03:18.829Z,28.77
2018-07-19T17:05:48.013Z,28.95
2018-07-19T17:08:17.108Z,29.88
2018-07-19T17:10:46.545Z,29.87
2018-07-19T17:13:15.926Z,30.02
2018-07-19T17:15:45.026Z,30.48
2018-07-19T17:18:14.166Z,29.78
2018-07-19T17:20:43.279Z,28.82
2018-07-19T17:23:12.377Z,29.56
2018-07-19T17:25:41.549Z,29.57
2018-07-19T17:28:10.698Z,28.51
2018-07-19T17:30:39.911Z,29.79
2018-07-19T17:33:09.017Z,28.74
2018-07-19T17:35:38.116Z,28.10
2018-07-19T17:38:07.229Z,28.58
2018-07-19T17:40:36.349Z,29.63
2018-07-19T17:43:05.798Z,28.97
2018-07-19T17:45:35.141Z,29.33
2018-07-19T17:48:04.253Z,30.44
2018-07-19T17:50:33.349Z,30.81
2018-07-19T17:53:02.442Z,31.33
2018-07-19T17:55:31.561Z,30.64
2018-07-19T17:58:00.721Z,31.02
2018-07-19T18:00:29.809Z,30.16
2018-07-19T18:02:58.901Z,31.14
2018-07-19T18:05:27.993Z,30.91
2018-07-19T18:07:57.139Z,31.38
2018-07-19T18:10:26.225Z,32.49
2018-07-19T18:12:55.532Z,31.89
2018-07-19T18:15:24.673Z,30.07
2018-07-19T18:17:53.953Z,31.76
2018-07-19T18:20:23.100Z,32.46
2018-07-19T18:22:52.165Z,31.33
2018-07-19T18:25:21.249Z,31.26
2018-07-19T18:27:50.365Z,32.30
2018-07-19T18:30:19.458Z,31.22
2018-07-19T18:32:48.583Z,32.01
2018-07-19T18:35:17.661Z,32.87
2018-07-19T18:37:46.761Z,32.51
2018-07-19T18:40:15.849Z,32.84
2018-07-19T18:42:44.961Z,34.26
2018-07-19T18:45:14.117Z,34.57
2018-07-19T18:47:43.209Z,34.52
2018-07-19T18:50:12.343Z,33.86
2018-07-19T18:52:41.446Z,34.26
2018-07-19T18:55:10.553Z,34.59
2018-07-19T18:57:39.653Z,35.96
2018-07-19T19:00:08.798Z,36.01
2018-07-19T19:02:37.889Z,35.63
2018-07-19T19:05:07.031Z,36.34
2018-07-19T19:07:36.121Z,36.04
2018-07-19T19:10:05.332Z,36.14
2018-07-19T19:12:34.425Z,37.25
2018-07-19T19:15:03.571Z,37.90
2018-07-19T19:17:32.700Z,37.82
2018-07-19T19:20:01.781Z,38.34
2018-07-19T19:22:30.917Z,39.70
2018-07-19T19:25:00.020Z,39.00
2018-07-19T19:27:29.145Z,40.07
2018-07-19T19:29:58.270Z,40.48
2018-07-19T19:32:27.749Z,39.76
2018-07-19T19:34:56.873Z,40.80
2018-07-19T19:37:25.972Z,41.37
2018-07-19T19:39:55.089Z,41.76
2018-07-19T19:42:24.172Z,41.38
2018-07-19T19:44:53.324Z,42.06
2018-07-19T19:47:22.385Z,43.64
2018-07-19T19:49:51.494Z,42.67
2018-07-19T19:52:20.622Z,42.95
2018-07-19T19:54:49.786Z,42.78
2018-07-19T19:57:18.979Z,43.31
2018-07-19T19:59:48.137Z,43.76
2018-07-19T20:02:17.223Z,43.95
2018-07-19T20:04:46.929Z,43.64
2018-07-19T20:07:16.037Z,44.98
2018-07-19T20:09:45.221Z,46.30
2018-07-19T20:12:14.393Z,44.89
2018-07-19T20:14:43.488Z,45.87
2018-07-19T20:17:12.651Z,46.30
2018-07-19T20:19:41.783Z,45.72
2018-07-19T20:22:10.898Z,47.17
2018-07-19T20:24:40.395Z,46.53
2018-07-19T20:27:09.553Z,46.47
2018-07-19T20:29:38.645Z,47.00
2018-07-19T20:32:07.759Z,46.36
2018-07-19T20:34:36.984Z,47.46
2018-07-19T20:37:06.076Z,48.23
2018-07-19T20:39:35.173Z,48.38
2018-07-19T20:42:04.349Z,48.53
2018-07-19T20:44:33.481Z,47.92
2018-07-19T20:47:02.611Z,48.57
2018-07-19T20:49:31.742Z,49.55
2018-07-19T20:52:00.861Z,50.88
2018-07-19T20:54:29.969Z,49.26
2018-07-19T20:56:59.113Z,49.20
2018-07-19T20:59:28.237Z,50.92
2018-07-19T21:01:57.413Z,50.01
2018-07-19T21:04:26.513Z,50.55
2018-07-19T21:06:55.645Z,50.54
2018-07-19T21:09:24.769Z,50.29
2018-07-19T21:11:53.862Z,50.80
2018-07-19T21:14:22.997Z,50.53
2018-07-19T21:16:52.101Z,51.49
2018-07-19T21:19:21.313Z,52.61
2018-07-19T21:21:50.481Z,51.73
2018-07-19T21:24:19.573Z,52.43
2018-07-19T21:26:48.681Z,52.62
2018-07-19T21:29:17.797Z,52.71
2018-07-19T21:31:46.913Z,52.64
2018-07-19T21:34:16.026Z,53.30
2018-07-19T21:36:45.127Z,53.34
2018-07-19T21:39:14.277Z,52.83
2018-07-19T21:41:43.329Z,52.77
2018-07-19T21:44:12.425Z,52.20
2018-07-19T21:46:41.537Z,52.07
2018-07-19T21:49:11.117Z,52.81
2018-07-19T21:51:40.181Z,53.30
2018-07-19T21:54:09.310Z,52.69
2018-07-19T21:56:38.465Z,53.30
2018-07-19T21:59:07.603Z,53.67
2018-07-19T22:01:40.873Z,53.80
2018-07-19T22:04:10.087Z,52.68
2018-07-19T22:06:39.189Z,52.07
2018-07-19T22:09:09.904Z,52.64
2018-07-19T22:11:39.367Z,52.52
2018-07-19T22:14:08.769Z,53.32
2018-07-19T22:16:39.029Z,52.40
2018-07-19T22:19:08.127Z,52.62
2018-07-19T22:21:37.272Z,52.09
2018-07-19T22:24:06.432Z,52.34
2018-07-19T22:26:35.525Z,52.36
2018-07-19T22:29:04.820Z,53.06
2018-07-19T22:31:34.359Z,55.83
2018-07-19T22:34:03.581Z,54.11
2018-07-19T22:36:32.717Z,54.02
2018-07-19T22:39:01.842Z,53.57
2018-07-19T22:41:30.941Z,53.89
2018-07-19T22:44:00.062Z,53.23
2018-07-19T22:46:29.168Z,56.46
2018-07-19T22:48:58.858Z,56.64
2018-07-19T22:51:28.001Z,55.56
2018-07-19T22:53:57.102Z,55.64
2018-07-19T22:56:26.199Z,56.02
2018-07-19T22:58:55.283Z,55.67
2018-07-19T23:01:24.380Z,54.75
2018-07-19T23:03:53.474Z,54.68
2018-07-19T23:06:22.601Z,55.54
2018-07-19T23:08:51.709Z,56.69
2018-07-19T23:11:20.809Z,56.25
2018-07-19T23:13:49.909Z,57.20
2018-07-19T23:16:19.027Z,55.54
2018-07-19T23:18:48.122Z,55.76
2018-07-19T23:21:17.245Z,55.80
2018-07-19T23:23:48.194Z,56.72
2018-07-19T23:26:17.294Z,55.86
2018-07-19T23:28:46.413Z,55.85
2018-07-19T23:31:15.517Z,56.27
2018-07-19T23:33:44.638Z,56.55
2018-07-19T23:37:16.679Z,56.12
2018-07-19T23:40:21.465Z,56.85
2018-07-19T23:42:54.680Z,58.30
2018-07-19T23:45:28.944Z,59.34
2018-07-19T23:47:58.101Z,59.48
2018-07-19T23:50:27.217Z,58.62
2018-07-19T23:52:56.361Z,58.61
2018-07-19T23:55:25.473Z,58.01
2018-07-19T23:57:54.585Z,57.93
